Flight Track Log - Related Links

Times and Time Zones

All times are in EDT time to prevent confusion due to time zone crossing. See the N62LD flight status page for this flight to view local times or setup timezone preferences in your user account.

Time Position Orientation Groundspeed Altitude Reporting Facility
EDT Latitude Longitude Course Direction KTS MPH feet Rate Location/Type
Thu 12:44:46 PM 38.5000 -121.5000 142° Southeast 107 123 500  Level Northern Cal TRACON
Thu 12:45:40 PM 38.4833 -121.4833 142° Southeast 109 125 1,200 684 Climbing Northern Cal TRACON
Thu 12:46:40 PM 38.4667 -121.4500 123° Southeast 118 136 1,800 700 Climbing Northern Cal TRACON
Thu 12:47:40 PM 38.4500 -121.4167 123° Southeast 135 155 2,600 737 Climbing Northern Cal TRACON
Thu 12:48:34 PM 38.4167 -121.3833 142° Southeast 140 161 3,200 612 Climbing Northern Cal TRACON
Thu 12:49:18 PM 38.4133 -121.3583 100° East 135 155 3,600 743 Climbing Oakland Center
Thu 12:50:19 PM 38.3869 -121.3114 126° Southeast 136 157 4,500 787 Climbing Oakland Center
Thu 12:51:20 PM 38.3644 -121.2719 126° Southeast 137 158 5,200 683 Climbing Oakland Center
Thu 12:52:22 PM 38.3422 -121.2300 124° Southeast 142 163 5,900 732 Climbing Oakland Center
Thu 12:53:23 PM 38.3081 -121.2136 159° South 145 167 6,700 683 Climbing Oakland Center
Thu 12:54:25 PM 38.2700 -121.1992 163° South 151 174 7,300 687 Climbing Oakland Center
Thu 12:55:34 PM 38.2333 -121.1667 145° Southeast 149 171 8,200 780 Climbing Northern Cal TRACON
Thu 12:56:28 PM 38.2000 -121.1333 142° Southeast 149 171 8,900 421 Climbing Northern Cal TRACON
Thu 12:57:28 PM 38.1500 -121.1167 165° South 170 196 9,000 50 Climbing Northern Cal TRACON
Thu 12:58:29 PM 38.1000 -121.1167 180° South 184 212 9,000  Level Northern Cal TRACON
Thu 12:59:32 PM 38.0550 -121.0997 163° South 182 209 9,000  Level Oakland Center
Thu 01:00:34 PM 38.0031 -121.0911 173° South 185 213 9,000  Level Oakland Center
Thu 01:01:35 PM 37.9528 -121.0831 173° South 184 212 9,000  Level Oakland Center
Thu 01:02:37 PM 37.9006 -121.0733 172° South 186 214 9,000  Level Oakland Center
Thu 01:03:23 PM 37.8500 -121.0667 174° South 182 209 9,000  Level Northern Cal TRACON
Thu 01:04:23 PM 37.8000 -121.0667 180° South 189 217 9,000  Level Northern Cal TRACON
Thu 01:05:23 PM 37.7500 -121.0500 165° South 183 211 9,000  Level Northern Cal TRACON
Thu 01:06:23 PM 37.7000 -121.0333 165° South 184 212 9,000  Level Northern Cal TRACON
Thu 01:07:23 PM 37.6500 -121.0333 180° South 185 213 9,000  Level Northern Cal TRACON
Thu 01:08:23 PM 37.6000 -121.0167 165° South 182 209 9,000  Level Northern Cal TRACON
Thu 01:09:23 PM 37.5500 -121.0167 180° South 181 208 9,000  Level Northern Cal TRACON
Thu 01:10:17 PM 37.5000 -121.0000 165° South 179 206 9,000  Level Northern Cal TRACON
Thu 01:11:17 PM 37.4500 -121.0000 180° South 183 211 9,000  Level Northern Cal TRACON
Thu 01:12:17 PM 37.4167 -121.0000 180° South 183 211 9,000  Level Northern Cal TRACON
Thu 01:13:17 PM 37.3500 -120.9833 169° South 181 208 9,000  Level Northern Cal TRACON
Thu 01:13:53 PM 37.3358 -120.9789 166° South 181 208 9,000  Level Oakland Center
Thu 01:14:55 PM 37.2853 -120.9714 173° South 181 208 9,000  Level Oakland Center
Thu 01:15:56 PM 37.2253 -120.9603 172° South 182 209 9,000  Level Oakland Center
Thu 01:16:58 PM 37.1756 -120.9531 173° South 180 207 9,000  Level Oakland Center
Thu 01:18:00 PM 37.1250 -120.9450 173° South 182 209 9,000 49 Level Oakland Center
Thu 01:19:01 PM 37.0742 -120.9350 171° South 184 212 9,100 49 Climbing Oakland Center
Thu 01:20:03 PM 37.0239 -120.9275 173° South 182 209 9,100  Level Oakland Center
Thu 01:21:04 PM 36.9725 -120.9186 172° South 184 212 9,100  Level Oakland Center
Thu 01:22:06 PM 36.9206 -120.9114 174° South 187 215 9,100  Level Oakland Center
Thu 01:23:07 PM 36.8706 -120.9028 172° South 182 209 9,100 -49 Level Oakland Center
Thu 01:24:08 PM 36.8153 -120.8931 172° South 185 213 9,000 -49 Descending Oakland Center
Thu 01:25:10 PM 36.7644 -120.8806 169° South 186 214 9,000  Level Oakland Center
Thu 01:26:11 PM 36.7125 -120.8697 171° South 189 217 9,000  Level Oakland Center
Thu 01:27:13 PM 36.6611 -120.8572 169° South 189 217 9,000  Level Oakland Center
Thu 01:28:14 PM 36.6017 -120.8419 168° South 184 212 9,000  Level Oakland Center
Thu 01:29:16 PM 36.5503 -120.8314 171° South 186 214 9,000  Level Oakland Center
Thu 01:30:17 PM 36.5003 -120.8175 167° South 185 213 9,000  Level Oakland Center
Thu 01:31:19 PM 36.4483 -120.8064 170° South 187 215 9,000  Level Oakland Center
Thu 01:32:20 PM 36.3958 -120.7922 168° South 186 214 9,000  Level Oakland Center
Thu 01:33:21 PM 36.3464 -120.7825 171° South 182 209 9,000  Level Oakland Center
Thu 01:34:23 PM 36.2953 -120.7703 169° South 186 214 9,000  Level Oakland Center
Thu 01:35:24 PM 36.2456 -120.7597 170° South 181 208 9,000  Level Oakland Center
Thu 01:36:26 PM 36.1836 -120.7456 170° South 187 215 9,000  Level Oakland Center
Thu 01:37:27 PM 36.1308 -120.7344 170° South 191 220 9,000  Level Oakland Center
Thu 01:38:29 PM 36.0811 -120.7217 168° South 186 214 9,000  Level Oakland Center
Thu 01:39:30 PM 36.0303 -120.7100 169° South 186 214 9,000 -49 Level Oakland Center
Thu 01:40:32 PM 35.9786 -120.6978 169° South 188 216 8,900 -49 Descending Oakland Center
Thu 01:41:33 PM 35.9272 -120.6869 170° South 188 216 8,900 -98 Level Oakland Center
Thu 01:42:35 PM 35.8756 -120.6739 168° South 188 216 8,700 -339 Descending Oakland Center
Thu 01:43:37 PM 35.8208 -120.6614 170° South 193 222 8,200 -537 Descending Oakland Center
Thu 01:44:38 PM 35.7550 -120.6461 169° South 198 228 7,600 -537 Descending Oakland Center
Thu 01:45:40 PM 35.7003 -120.6342 170° South 199 229 7,100 -293 Descending Oakland Center
Thu 01:46:41 PM 35.6472 -120.6267 173° South 197 227 7,000 -59 Descending Oakland Center
Thu 01:47:21 PM 35.6175 -120.6317 188° South 190 219 7,000  Level Los Angeles Center
Thu 01:48:23 PM 35.5692 -120.6322 181° South 181 208 7,000  Level Los Angeles Center
Thu 01:49:26 PM 35.5222 -120.6328 181° South 172 198 7,000  Level Los Angeles Center
Thu 01:50:28 PM 35.4656 -120.6350 182° South 170 196 7,000  Level Los Angeles Center
Thu 01:51:30 PM 35.4178 -120.6364 181° South 171 197 7,000  Level Los Angeles Center
Thu 01:52:32 PM 35.3697 -120.6386 182° South 172 198 7,000 -107 Level Los Angeles Center
Thu 01:53:22 PM 35.3286 -120.6281 168° South 174 200 6,800 -387 Descending Los Angeles Center
Thu 01:54:36 PM 35.2881 -120.5811 137° Southeast 184 212 6,200 -672 Descending Los Angeles Center
Thu 01:55:36 PM 35.2417 -120.5242 135° Southeast 198 228 5,300 -968 Descending Los Angeles Center
Thu 01:56:40 PM 35.2056 -120.4747 132° Southeast 193 222 4,200 -614 Descending Los Angeles Center
Thu 01:57:43 PM 35.1731 -120.4317 133° Southeast 178 205 4,000 -458 Descending Los Angeles Center
Thu 01:58:38 PM 35.1372 -120.4392 190° South 174 200 3,300 -574 Descending Los Angeles Center
Thu 01:59:38 PM 35.1500 -120.4878 288° West 177 204 2,900 -520 Descending Los Angeles Center
Thu 02:00:45 PM 35.1811 -120.5433 304° West 180 207 2,200 -771 Descending Los Angeles Center
Thu 02:01:27 PM 35.1967 -120.5753 301° West 171 197 1,500 -816 Descending Los Angeles Center
Thu 02:02:28 PM 35.2192 -120.6100 308° West 129 148 800 221 Descending Los Angeles Center
Thu 02:03:43 PM 35.2408 -120.6511 303° West 117 135 2,000 876 Climbing Los Angeles Center
Thu 02:04:45 PM 35.2606 -120.6831 307° West 123 142 2,800 823 Climbing Los Angeles Center
Thu 02:05:47 PM 35.2800 -120.7192 303° West 129 148 3,700 849 Climbing Los Angeles Center
Thu 02:06:31 PM 35.2536 -120.7411 214° Southwest 149 171 4,300 800 Climbing Los Angeles Center
Thu 02:07:32 PM 35.2094 -120.7472 186° South 147 169 5,100 744 Climbing Los Angeles Center
Thu 02:08:32 PM 35.1692 -120.7494 183° South 150 173 5,800 730 Climbing Los Angeles Center
Thu 02:09:27 PM 35.1275 -120.7467 177° South 156 180 6,500 516 Climbing Los Angeles Center
Thu 02:10:40 PM 35.0872 -120.6992 136° Southeast 173 199 6,900 180 Climbing Los Angeles Center
Thu 02:11:40 PM 35.0481 -120.6564 138° Southeast 192 221 6,900  Level Los Angeles Center
Thu 02:12:35 PM 35.0139 -120.6172 137° Southeast 194 223 6,900  Level Los Angeles Center
Thu 02:13:36 PM 34.9719 -120.5731 139° Southeast 193 222 6,900 378 Level Los Angeles Center
Thu 02:14:42 PM 34.9294 -120.5261 138° Southeast 184 212 7,700 522 Climbing Los Angeles Center
Thu 02:15:31 PM 34.9014 -120.4958 138° Southeast 171 197 7,900 209 Climbing Los Angeles Center
Thu 02:16:08 PM 34.8819 -120.4731 136° Southeast 174 200 8,000  Climbing Los Angeles Center
Thu 02:17:10 PM 34.8369 -120.4228 137° Southeast 194 223 7,900 194 Descending Los Angeles Center
Thu 02:18:12 PM 34.8028 -120.3836 137° Southeast 191 220 8,400 484 Climbing Los Angeles Center
Thu 02:19:14 PM 34.7689 -120.3453 137° Southeast 169 194 8,900 242 Climbing Los Angeles Center
Thu 02:20:16 PM 34.7342 -120.2853 125° Southeast 182 209 8,900  Level Los Angeles Center
Thu 02:21:18 PM 34.7142 -120.2414 119° Southeast 186 214 8,900  Level Los Angeles Center
Thu 02:22:21 PM 34.6853 -120.1731 117° Southeast 189 217 8,900  Level Los Angeles Center
Thu 02:23:23 PM 34.6611 -120.1169 118° Southeast 188 216 8,900  Level Los Angeles Center
Thu 02:24:25 PM 34.6347 -120.0556 118° Southeast 191 220 8,900  Level Los Angeles Center
Thu 02:25:27 PM 34.6097 -119.9981 118° Southeast 194 223 8,900  Level Los Angeles Center
Thu 02:26:29 PM 34.5831 -119.9411 120° Southeast 188 216 8,900  Level Los Angeles Center
Thu 02:27:31 PM 34.5583 -119.8856 118° Southeast 187 215 8,900  Level Los Angeles Center
Thu 02:28:33 PM 34.5356 -119.8286 116° Southeast 187 215 8,900  Level Los Angeles Center
Thu 02:29:36 PM 34.5069 -119.7639 118° Southeast 183 211 8,900  Level Los Angeles Center
Thu 02:30:38 PM 34.4967 -119.7053 102° East 178 205 8,900  Level Los Angeles Center
Thu 02:31:40 PM 34.4875 -119.6447 100° East 181 208 8,900  Level Los Angeles Center
Thu 02:32:42 PM 34.4783 -119.5867 101° East 178 205 8,900  Level Los Angeles Center
Thu 02:33:44 PM 34.4686 -119.5286 101° East 177 204 8,900  Level Los Angeles Center
Thu 02:34:46 PM 34.4581 -119.4706 102° East 178 205 8,900  Level Los Angeles Center
Thu 02:35:48 PM 34.4450 -119.3986 102° East 181 208 8,900  Level Los Angeles Center
Thu 02:36:51 PM 34.4358 -119.3386 100° East 181 208 8,900  Level Los Angeles Center
Thu 02:38:05 PM 34.4258 -119.2783 101° East 182 209 8,900  Level Los Angeles Center
Thu 02:39:07 PM 34.4128 -119.2061 102° East 182 209 8,900  Level Los Angeles Center
Thu 02:40:09 PM 34.4022 -119.1450 102° East 186 214 8,900 96 Level Los Angeles Center
Thu 02:41:12 PM 34.3897 -119.0719 102° East 186 214 9,100 96 Climbing Los Angeles Center
Thu 02:42:14 PM 34.3797 -119.0125 102° East 182 209 9,100  Level Los Angeles Center
Thu 02:43:16 PM 34.3683 -118.9525 103° East 182 209 9,100  Level Los Angeles Center
Thu 02:44:18 PM 34.3578 -118.8928 102° East 182 209 9,100  Level Los Angeles Center
Thu 02:45:20 PM 34.3408 -118.8333 109° East 188 216 9,100  Level Los Angeles Center
Thu 02:46:22 PM 34.3200 -118.7778 114° Southeast 183 211 9,100  Level Los Angeles Center
Thu 02:47:24 PM 34.2983 -118.7092 111° Southeast 183 211 9,100  Level Los Angeles Center
Thu 02:48:27 PM 34.2775 -118.6522 114° Southeast 186 214 9,100  Level Los Angeles Center
Thu 02:49:29 PM 34.2592 -118.5936 111° Southeast 186 214 9,100  Level Los Angeles Center
Thu 02:50:31 PM 34.2392 -118.5369 113° Southeast 184 212 9,100  Level Los Angeles Center
Thu 02:51:33 PM 34.2189 -118.4794 113° Southeast 186 214 9,100  Level Los Angeles Center
Thu 02:52:35 PM 34.2050 -118.4333 110° East 184 212 9,100  Level Los Angeles Center
Thu 02:53:37 PM 34.1811 -118.3522 110° East 182 209 9,100 -48 Level Los Angeles Center
Thu 02:54:39 PM 34.1392 -118.3167 145° Southeast 186 214 9,000 -48 Descending Los Angeles Center
Thu 02:55:41 PM 34.0958 -118.2850 149° Southeast 184 212 9,000  Level Los Angeles Center
Thu 02:56:44 PM 34.0525 -118.2533 149° Southeast 181 208 9,000  Level Los Angeles Center
Thu 02:57:45 PM 34.0178 -118.2278 149° Southeast 182 209 9,000 48 Level Los Angeles Center
Thu 02:58:48 PM 33.9672 -118.1894 148° Southeast 179 206 9,100 48 Climbing Los Angeles Center
Thu 02:59:50 PM 33.9236 -118.1572 148° Southeast 181 208 9,100  Level Los Angeles Center
Thu 03:00:52 PM 33.8719 -118.1194 149° Southeast 180 207 9,100 -48 Level Los Angeles Center
Thu 03:01:54 PM 33.8289 -118.0875 148° Southeast 180 207 9,000 -48 Descending Los Angeles Center
Thu 03:02:56 PM 33.7858 -118.0558 149° Southeast 180 207 9,000  Level Los Angeles Center
Thu 03:03:59 PM 33.7494 -118.0142 136° Southeast 179 206 9,000  Level Los Angeles Center
Thu 03:05:14 PM 33.7000 -117.9500 133° Southeast 177 204 9,000  Level Southern California TRACON
Thu 03:06:20 PM 33.6667 -117.9000 129° Southeast 180 207 9,000  Level Southern California TRACON
Thu 03:07:14 PM 33.6333 -117.8667 140° Southeast 181 208 9,000  Level Southern California TRACON
Thu 03:08:20 PM 33.5833 -117.8167 140° Southeast 181 208 9,000  Level Southern California TRACON
Thu 03:09:14 PM 33.5500 -117.7833 140° Southeast 183 211 9,000  Level Southern California TRACON
Thu 03:10:14 PM 33.5167 -117.7500 140° Southeast 182 209 9,000 -200 Level Southern California TRACON
Thu 03:11:14 PM 33.4833 -117.7000 129° Southeast 193 222 8,600 -496 Descending Southern California TRACON
Thu 03:12:15 PM 33.4333 -117.6500 140° Southeast 205 236 8,000 -793 Descending Southern California TRACON
Thu 03:13:15 PM 33.4000 -117.6000 129° Southeast 217 250 7,000 -900 Descending Southern California TRACON
Thu 03:14:15 PM 33.3500 -117.5500 140° Southeast 205 236 6,200 -750 Descending Southern California TRACON
Thu 03:15:15 PM 33.3167 -117.5000 129° Southeast 201 231 5,500 -750 Descending Southern California TRACON
Thu 03:16:15 PM 33.2833 -117.4667 140° Southeast 198 228 4,700 -850 Descending Southern California TRACON
Thu 03:17:15 PM 33.2333 -117.4167 140° Southeast 174 200 3,800 -950 Descending Southern California TRACON
Thu 03:18:15 PM 33.2000 -117.3833 140° Southeast 180 207 2,800 -750 Descending Southern California TRACON
Thu 03:19:15 PM 33.1667 -117.3333 129° Southeast 161 185 2,300 -600 Descending Southern California TRACON
Thu 03:20:15 PM 33.1500 -117.3000 121° Southeast 147 169 1,600 -350 Descending Southern California TRACON
Thu 03:21:15 PM 33.1500 -117.2500 90° East 114 131 1,600 -350 Level Southern California TRACON
Thu 03:22:15 PM 33.1333 -117.2500 180° South 111 128 900 -423 Descending Southern California TRACON
Thu 03:23:51 PM 33.1158 -117.3036 249° West 134 154 500 -250 Descending Los Angeles Center

Login

Don't have an account? Register now (free) for customized features, flight alerts, and more!